Time;durP1;ratioP1;P1;durP2;ratioP2;P2;SDS_P1;SDS_P2;PMS_P1;PMS_P2;Temp;Humidity;BMP_temperature;BMP_pressure;BME280_temperature;BME280_humidity;BME280_pressure;Samples;Min_cycle;Max_cycle;Signal;HPM_P1;HPM_P2
2022/08/23 00:00:53;;;;;;;11.30;6.63;;;;;;;;;;2080925;28;20022;-89
2022/08/23 00:01:56;;;;;;;8.75;5.88;;;;;;;;;;2082167;28;20018;-89
2022/08/23 00:02:57;;;;;;;13.23;6.13;;;;;;;;;;2080429;28;20024;-89
2022/08/23 00:04:04;;;;;;;9.88;6.25;;;;;;;;;;2072036;28;20049;-90
2022/08/23 00:05:05;;;;;;;9.77;6.22;;;;;;;;;;2083185;28;20033;-89
2022/08/23 00:06:06;;;;;;;10.30;6.38;;;;;;;;;;2080701;28;20522;-90
2022/08/23 00:07:09;;;;;;;10.73;6.47;;;;;;;;;;2081080;28;20091;-90
2022/08/23 00:08:10;;;;;;;9.80;5.63;;;;;;;;;;2080854;28;20032;-89
2022/08/23 00:09:11;;;;;;;9.95;5.80;;;;;;;;;;2080138;28;20095;-89
2022/08/23 00:10:15;;;;;;;8.20;5.63;;;;;;;;;;2080078;28;20022;-90
2022/08/23 00:11:35;;;;;;;9.73;6.05;;;;;;;;;;2080233;28;20044;-90
2022/08/23 00:12:37;;;;;;;10.20;6.00;;;;;;;;;;2080506;28;20094;-89
2022/08/23 00:13:38;;;;;;;11.07;5.78;;;;;;;;;;2080031;28;20037;-90
2022/08/23 00:14:42;;;;;;;12.68;6.60;;;;;;;;;;2071854;28;20018;-90
2022/08/23 00:15:43;;;;;;;11.10;6.03;;;;;;;;;;2079923;28;20144;-89
2022/08/23 00:16:44;;;;;;;8.82;6.43;;;;;;;;;;2080231;28;20025;-90
2022/08/23 00:17:45;;;;;;;9.57;5.93;;;;;;;;;;2080617;28;20105;-90
2022/08/23 00:18:45;;;;;;;7.15;5.90;;;;;;;;;;2080037;28;20028;-90
2022/08/23 00:19:46;;;;;;;8.30;5.03;;;;;;;;;;2072055;28;20029;-89
2022/08/23 00:20:47;;;;;;;10.45;6.50;;;;;;;;;;2077518;28;20029;-90
2022/08/23 00:21:49;;;;;;;12.20;6.78;;;;;;;;;;2072053;28;20022;-89
2022/08/23 00:22:49;;;;;;;9.65;6.03;;;;;;;;;;2080081;28;20491;-90
2022/08/23 00:23:50;;;;;;;11.25;6.72;;;;;;;;;;2080621;28;20053;-90
2022/08/23 00:24:50;;;;;;;7.88;5.82;;;;;;;;;;2080649;28;20018;-90
2022/08/23 00:25:50;;;;;;;9.13;5.93;;;;;;;;;;2080489;28;20029;-90
2022/08/23 00:27:06;;;;;;;9.98;6.10;;;;;;;;;;2080074;28;20021;-90
2022/08/23 00:28:08;;;;;;;9.25;6.28;;;;;;;;;;2073824;28;20172;-90
2022/08/23 00:29:08;;;;;;;11.68;5.95;;;;;;;;;;2071830;28;20547;-90
2022/08/23 00:30:11;;;;;;;8.88;6.32;;;;;;;;;;2071701;28;20053;-90
2022/08/23 00:31:12;;;;;;;9.02;5.93;;;;;;;;;;2079977;28;20597;-90
2022/08/23 00:32:15;;;;;;;9.18;5.93;;;;;;;;;;2080608;28;20029;-90
2022/08/23 00:33:16;;;;;;;11.10;6.22;;;;;;;;;;2079896;28;20014;-90
2022/08/23 00:34:16;;;;;;;8.45;6.00;;;;;;;;;;2080067;28;20120;-90
2022/08/23 00:35:17;;;;;;;8.85;5.72;;;;;;;;;;2080557;28;20217;-90
2022/08/23 00:36:17;;;;;;;8.43;5.43;;;;;;;;;;2080604;28;20733;-90
2022/08/23 00:37:19;;;;;;;8.02;5.50;;;;;;;;;;2080617;28;20029;-90
2022/08/23 00:38:19;;;;;;;11.77;6.45;;;;;;;;;;2079794;28;20053;-89
2022/08/23 00:39:20;;;;;;;9.75;6.50;;;;;;;;;;2079573;28;20033;-90
2022/08/23 00:40:21;;;;;;;11.57;6.55;;;;;;;;;;2071779;28;20029;-90
2022/08/23 00:41:21;;;;;;;8.18;5.32;;;;;;;;;;2080029;28;20112;-90
2022/08/23 00:47:54;;;;;;;11.00;6.20;;;;;;;;;;2081637;28;20496;-90
2022/08/23 00:48:55;;;;;;;13.95;7.07;;;;;;;;;;2079884;28;20021;-90
2022/08/23 00:50:24;;;;;;;9.27;6.07;;;;;;;;;;2071908;28;20040;-90
2022/08/23 00:51:34;;;;;;;9.55;6.32;;;;;;;;;;2079418;28;20444;-90
2022/08/23 00:52:44;;;;;;;9.98;5.85;;;;;;;;;;2080545;28;20025;-90
2022/08/23 00:53:54;;;;;;;10.93;6.40;;;;;;;;;;2079708;28;20112;-90
2022/08/23 00:54:55;;;;;;;11.98;6.75;;;;;;;;;;2079760;28;20432;-90
2022/08/23 00:55:58;;;;;;;9.02;5.88;;;;;;;;;;2071502;28;20022;-90
2022/08/23 00:57:01;;;;;;;9.30;5.78;;;;;;;;;;2071924;28;20461;-91
2022/08/23 00:58:02;;;;;;;9.85;5.55;;;;;;;;;;2072002;28;20104;-90
2022/08/23 00:59:03;;;;;;;7.45;5.25;;;;;;;;;;2071837;28;20106;-90
2022/08/23 01:00:06;;;;;;;8.10;5.60;;;;;;;;;;2071702;28;20505;-90
2022/08/23 01:01:07;;;;;;;6.68;5.43;;;;;;;;;;2071907;28;20087;-89
2022/08/23 01:02:08;;;;;;;7.45;5.10;;;;;;;;;;2071607;28;20037;-90
2022/08/23 01:03:11;;;;;;;6.07;4.82;;;;;;;;;;2079713;28;20068;-90
2022/08/23 01:04:12;;;;;;;8.70;5.45;;;;;;;;;;1723341;28;10266996;-90
2022/08/23 01:05:13;;;;;;;7.90;5.20;;;;;;;;;;2079942;28;20029;-90
2022/08/23 01:06:27;;;;;;;8.05;5.65;;;;;;;;;;2079693;28;20021;-89
2022/08/23 01:07:33;;;;;;;7.65;5.28;;;;;;;;;;2079817;28;20033;-91
2022/08/23 01:08:36;;;;;;;8.55;5.55;;;;;;;;;;2079820;28;20017;-90
2022/08/23 01:09:40;;;;;;;8.73;5.43;;;;;;;;;;2071594;28;20017;-90
2022/08/23 01:10:59;;;;;;;8.10;5.60;;;;;;;;;;2071870;28;20037;-89
2022/08/23 01:12:10;;;;;;;9.27;5.47;;;;;;;;;;2079735;28;20032;-90
2022/08/23 01:13:19;;;;;;;10.15;6.10;;;;;;;;;;2079639;28;20104;-89
2022/08/23 01:14:31;;;;;;;8.90;5.35;;;;;;;;;;2079460;28;20030;-89
2022/08/23 01:15:38;;;;;;;9.95;5.80;;;;;;;;;;2079868;28;20069;-90
2022/08/23 01:16:45;;;;;;;6.72;4.90;;;;;;;;;;2080386;28;20091;-89
2022/08/23 01:17:53;;;;;;;6.47;5.20;;;;;;;;;;2080553;28;20025;-88
2022/08/23 01:18:55;;;;;;;9.07;5.00;;;;;;;;;;2080320;28;20025;-89
2022/08/23 01:20:04;;;;;;;11.10;5.20;;;;;;;;;;2080535;28;20033;-90
2022/08/23 01:21:20;;;;;;;7.03;4.47;;;;;;;;;;2081626;28;20558;-89
2022/08/23 01:22:30;;;;;;;7.55;4.85;;;;;;;;;;2083310;28;20025;-89
2022/08/23 01:23:40;;;;;;;7.13;4.80;;;;;;;;;;2079592;28;20053;-89
2022/08/23 01:24:42;;;;;;;7.47;4.93;;;;;;;;;;2079543;28;20054;-89
2022/08/23 01:25:43;;;;;;;9.45;5.75;;;;;;;;;;2079492;28;20554;-89
2022/08/23 01:26:44;;;;;;;9.02;5.80;;;;;;;;;;2079697;28;20021;-89
2022/08/23 01:27:45;;;;;;;6.97;5.50;;;;;;;;;;2071492;28;20024;-89
2022/08/23 01:28:45;;;;;;;7.53;4.97;;;;;;;;;;2071515;28;20030;-90
2022/08/23 01:29:46;;;;;;;9.98;5.93;;;;;;;;;;2079454;28;20022;-89
2022/08/23 01:30:47;;;;;;;10.00;6.18;;;;;;;;;;1724317;28;10262164;-90
2022/08/23 01:31:49;;;;;;;9.45;6.85;;;;;;;;;;2080303;28;20441;-89
2022/08/23 01:32:53;;;;;;;10.98;6.13;;;;;;;;;;2079701;28;20541;-89
2022/08/23 01:33:57;;;;;;;11.63;6.85;;;;;;;;;;2079700;28;20017;-89
2022/08/23 01:34:58;;;;;;;10.60;6.10;;;;;;;;;;2080254;28;20021;-89
2022/08/23 01:36:00;;;;;;;10.43;6.40;;;;;;;;;;2079763;28;20036;-89
2022/08/23 01:37:00;;;;;;;12.90;7.55;;;;;;;;;;2071542;28;20088;-90
2022/08/23 01:38:01;;;;;;;10.93;6.63;;;;;;;;;;2087663;28;20029;-89
2022/08/23 01:39:04;;;;;;;10.55;6.43;;;;;;;;;;2087822;28;20055;-90
2022/08/23 01:40:05;;;;;;;9.80;7.13;;;;;;;;;;2071485;28;20025;-89
2022/08/23 01:41:05;;;;;;;13.40;7.75;;;;;;;;;;2071288;28;20048;-89
2022/08/23 01:42:06;;;;;;;13.45;6.97;;;;;;;;;;2079608;28;20029;-89
2022/08/23 01:43:08;;;;;;;10.93;6.97;;;;;;;;;;2087759;28;20021;-90
2022/08/23 01:44:08;;;;;;;12.57;7.35;;;;;;;;;;2079445;28;20029;-89
2022/08/23 01:45:12;;;;;;;12.23;6.65;;;;;;;;;;2079559;28;20153;-89
2022/08/23 01:46:16;;;;;;;12.40;6.93;;;;;;;;;;2087923;28;20507;-89
2022/08/23 01:47:17;;;;;;;11.15;7.68;;;;;;;;;;2095425;28;20337;-89
2022/08/23 01:48:18;;;;;;;10.00;6.93;;;;;;;;;;2087521;28;20111;-89
2022/08/23 01:49:19;;;;;;;11.40;7.38;;;;;;;;;;2080084;28;20022;-89
2022/08/23 01:50:20;;;;;;;11.38;6.72;;;;;;;;;;2079954;28;20028;-89
2022/08/23 01:51:22;;;;;;;10.70;6.43;;;;;;;;;;2080339;28;20168;-90
2022/08/23 01:52:23;;;;;;;11.32;6.93;;;;;;;;;;2080181;28;20021;-89
2022/08/23 01:53:23;;;;;;;11.35;6.13;;;;;;;;;;2079552;28;20049;-89
2022/08/23 01:54:24;;;;;;;11.50;7.35;;;;;;;;;;2079465;28;20483;-90
2022/08/23 01:55:25;;;;;;;11.70;7.50;;;;;;;;;;2080113;28;20109;-89
2022/08/23 01:56:25;;;;;;;14.32;7.47;;;;;;;;;;2079331;28;20017;-90
2022/08/23 01:57:29;;;;;;;10.85;7.30;;;;;;;;;;2071215;28;20021;-89
2022/08/23 01:58:33;;;;;;;14.23;7.72;;;;;;;;;;2079500;28;20523;-89
2022/08/23 01:59:36;;;;;;;13.35;7.72;;;;;;;;;;2079436;28;20025;-89
2022/08/23 02:00:39;;;;;;;12.35;8.13;;;;;;;;;;2079492;28;20452;-90
2022/08/23 02:01:40;;;;;;;11.90;6.80;;;;;;;;;;2080095;28;20033;-90
2022/08/23 02:02:40;;;;;;;14.75;8.45;;;;;;;;;;2079250;28;20026;-89
2022/08/23 02:03:41;;;;;;;17.00;8.55;;;;;;;;;;2079561;28;20024;-91
2022/08/23 02:04:41;;;;;;;16.15;8.07;;;;;;;;;;2080037;28;20049;-89
2022/08/23 02:05:44;;;;;;;13.75;9.07;;;;;;;;;;2079980;28;20404;-89
2022/08/23 02:06:44;;;;;;;12.13;8.77;;;;;;;;;;2080275;28;20030;-90
2022/08/23 02:07:46;;;;;;;15.85;9.23;;;;;;;;;;2082149;28;20053;-89
2022/08/23 02:09:02;;;;;;;14.25;8.48;;;;;;;;;;2080714;28;20017;-89
2022/08/23 02:10:05;;;;;;;14.40;9.50;;;;;;;;;;2073997;28;20033;-89
2022/08/23 02:11:15;;;;;;;14.63;9.45;;;;;;;;;;2079394;28;20025;-88
2022/08/23 02:12:16;;;;;;;16.55;8.80;;;;;;;;;;2079479;28;20029;-89
2022/08/23 02:13:17;;;;;;;16.63;9.98;;;;;;;;;;2079157;28;20558;-89
2022/08/23 02:14:19;;;;;;;16.63;10.52;;;;;;;;;;2071574;28;20026;-90
2022/08/23 02:15:20;;;;;;;15.13;9.52;;;;;;;;;;2079235;28;20143;-90
2022/08/23 02:16:23;;;;;;;16.30;9.32;;;;;;;;;;2080356;28;20021;-89
2022/08/23 02:17:24;;;;;;;18.30;9.90;;;;;;;;;;2080096;28;20022;-90
2022/08/23 02:18:24;;;;;;;16.77;10.38;;;;;;;;;;2080158;28;20040;-89
2022/08/23 02:19:25;;;;;;;22.48;10.75;;;;;;;;;;2087668;28;20044;-90
2022/08/23 02:20:25;;;;;;;18.48;10.20;;;;;;;;;;2079447;28;20014;-89
2022/08/23 02:21:26;;;;;;;15.90;10.57;;;;;;;;;;2079411;28;20029;-90
2022/08/23 02:22:26;;;;;;;21.58;11.05;;;;;;;;;;2079453;28;20026;-89
2022/08/23 02:23:27;;;;;;;17.30;10.00;;;;;;;;;;2070945;28;20114;-90
2022/08/23 02:24:29;;;;;;;17.27;10.48;;;;;;;;;;2071285;28;20034;-89
2022/08/23 02:25:30;;;;;;;21.77;10.00;;;;;;;;;;2079426;28;20048;-90
2022/08/23 02:26:31;;;;;;;15.93;9.57;;;;;;;;;;2079257;28;20025;-90
2022/08/23 02:27:31;;;;;;;15.98;9.82;;;;;;;;;;2071059;28;20116;-90
2022/08/23 02:28:32;;;;;;;15.23;9.63;;;;;;;;;;2079374;28;20053;-89
2022/08/23 02:29:34;;;;;;;14.80;9.45;;;;;;;;;;2079218;28;20111;-89
2022/08/23 02:30:34;;;;;;;20.50;11.98;;;;;;;;;;2071316;28;20029;-90
2022/08/23 02:31:35;;;;;;;18.50;10.13;;;;;;;;;;2079461;28;20029;-90
2022/08/23 02:32:35;;;;;;;18.02;10.40;;;;;;;;;;2079084;28;20025;-89
2022/08/23 02:33:35;;;;;;;19.88;10.95;;;;;;;;;;2079365;28;20531;-89
2022/08/23 02:34:37;;;;;;;17.08;10.23;;;;;;;;;;2087782;28;20036;-89
2022/08/23 02:35:38;;;;;;;16.45;10.95;;;;;;;;;;2089119;28;20107;-90
2022/08/23 02:36:39;;;;;;;19.15;10.52;;;;;;;;;;2080883;28;20041;-90
2022/08/23 02:37:39;;;;;;;21.48;11.55;;;;;;;;;;2072613;28;20488;-89
2022/08/23 02:38:40;;;;;;;17.77;10.85;;;;;;;;;;2072621;28;20113;-89
2022/08/23 02:39:41;;;;;;;18.15;10.52;;;;;;;;;;2080989;28;20160;-89
2022/08/23 02:40:41;;;;;;;16.70;10.75;;;;;;;;;;2080967;28;20112;-89
2022/08/23 02:41:43;;;;;;;19.40;10.95;;;;;;;;;;2080964;28;20443;-89
2022/08/23 02:42:43;;;;;;;18.15;10.40;;;;;;;;;;2081569;28;20389;-88
2022/08/23 02:43:44;;;;;;;16.02;10.13;;;;;;;;;;2081582;28;20201;-89
2022/08/23 02:44:45;;;;;;;17.20;10.63;;;;;;;;;;2081506;28;20461;-89
2022/08/23 02:45:45;;;;;;;14.93;10.05;;;;;;;;;;2081618;28;20022;-89
2022/08/23 02:46:46;;;;;;;17.55;10.48;;;;;;;;;;2081450;28;20044;-88
2022/08/23 02:47:46;;;;;;;16.30;9.50;;;;;;;;;;2081676;28;20025;-88
2022/08/23 02:48:47;;;;;;;17.50;9.20;;;;;;;;;;2081235;28;20025;-89
2022/08/23 02:49:47;;;;;;;17.63;10.02;;;;;;;;;;2080826;28;20084;-90
2022/08/23 02:50:48;;;;;;;14.45;9.85;;;;;;;;;;2080598;28;20017;-89
2022/08/23 02:51:49;;;;;;;15.18;9.73;;;;;;;;;;2080735;28;20029;-88
2022/08/23 02:52:50;;;;;;;16.58;9.80;;;;;;;;;;2080795;28;20467;-89
2022/08/23 02:53:51;;;;;;;17.65;10.30;;;;;;;;;;2080652;28;20024;-88
2022/08/23 02:54:51;;;;;;;16.75;9.73;;;;;;;;;;2080783;28;20017;-89
2022/08/23 02:55:52;;;;;;;18.55;10.10;;;;;;;;;;2081348;28;20037;-88
2022/08/23 02:56:53;;;;;;;16.15;10.48;;;;;;;;;;2080568;28;20087;-88
2022/08/23 02:57:53;;;;;;;16.42;10.43;;;;;;;;;;2072706;28;20044;-89
2022/08/23 02:58:54;;;;;;;19.08;10.35;;;;;;;;;;2080738;28;20032;-89
2022/08/23 02:59:54;;;;;;;16.95;10.38;;;;;;;;;;2081507;28;20021;-89
2022/08/23 03:00:55;;;;;;;18.20;11.10;;;;;;;;;;2080644;28;20037;-89
2022/08/23 03:01:56;;;;;;;19.35;9.65;;;;;;;;;;2080801;28;20074;-88
2022/08/23 03:02:56;;;;;;;18.05;10.23;;;;;;;;;;2081396;28;20401;-89
2022/08/23 03:03:57;;;;;;;15.23;10.48;;;;;;;;;;2080534;28;20017;-88
2022/08/23 03:04:58;;;;;;;16.88;10.52;;;;;;;;;;2072394;28;20120;-89
2022/08/23 03:05:58;;;;;;;19.42;10.23;;;;;;;;;;2080687;28;20480;-88
2022/08/23 03:06:59;;;;;;;18.73;11.60;;;;;;;;;;2081195;28;20389;-89
2022/08/23 03:07:59;;;;;;;18.75;11.07;;;;;;;;;;2080530;28;20471;-89
2022/08/23 03:09:00;;;;;;;17.17;11.40;;;;;;;;;;2080825;28;20124;-89
2022/08/23 03:10:00;;;;;;;18.88;10.95;;;;;;;;;;2081117;28;20052;-89
2022/08/23 03:11:01;;;;;;;16.08;11.02;;;;;;;;;;2088688;28;20025;-89
2022/08/23 03:12:01;;;;;;;18.70;11.27;;;;;;;;;;2080472;28;20527;-88
2022/08/23 03:13:02;;;;;;;17.02;9.88;;;;;;;;;;2080646;28;20036;-89
2022/08/23 03:14:03;;;;;;;17.67;10.63;;;;;;;;;;2081329;28;20033;-89
2022/08/23 03:15:04;;;;;;;19.20;10.90;;;;;;;;;;2080526;28;20104;-89
2022/08/23 03:16:05;;;;;;;16.38;10.43;;;;;;;;;;2072345;28;20104;-89
2022/08/23 03:17:06;;;;;;;17.00;9.75;;;;;;;;;;2080294;28;20029;-89
2022/08/23 03:18:07;;;;;;;18.35;11.00;;;;;;;;;;2081145;28;20041;-89
2022/08/23 03:19:08;;;;;;;18.70;11.52;;;;;;;;;;2080220;28;20036;-89
2022/08/23 03:20:09;;;;;;;19.85;10.57;;;;;;;;;;2072279;28;20477;-89
2022/08/23 03:21:10;;;;;;;15.93;10.35;;;;;;;;;;2080247;28;20106;-88
2022/08/23 03:22:11;;;;;;;17.95;10.88;;;;;;;;;;2080406;28;20029;-88
2022/08/23 03:23:11;;;;;;;16.75;10.90;;;;;;;;;;2080556;28;20029;-89
2022/08/23 03:24:12;;;;;;;20.27;11.23;;;;;;;;;;2080131;28;20196;-88
2022/08/23 03:25:12;;;;;;;16.20;10.85;;;;;;;;;;2072142;28;20050;-89
2022/08/23 03:26:14;;;;;;;19.23;10.65;;;;;;;;;;2080184;28;20509;-88
2022/08/23 03:27:14;;;;;;;18.70;10.15;;;;;;;;;;2081047;28;20032;-88
2022/08/23 03:28:15;;;;;;;18.70;11.23;;;;;;;;;;2080332;28;20558;-89
2022/08/23 03:29:16;;;;;;;16.85;10.23;;;;;;;;;;2072093;28;20013;-88
2022/08/23 03:30:16;;;;;;;18.27;10.25;;;;;;;;;;2072125;28;20018;-88
2022/08/23 03:31:17;;;;;;;16.27;9.93;;;;;;;;;;2080305;28;20036;-88
2022/08/23 03:32:17;;;;;;;17.90;10.20;;;;;;;;;;2088495;28;20118;-88
2022/08/23 03:33:18;;;;;;;20.90;10.15;;;;;;;;;;2088592;28;20060;-88
2022/08/23 03:34:19;;;;;;;16.33;10.15;;;;;;;;;;2080201;28;20044;-88
2022/08/23 03:35:19;;;;;;;16.73;10.38;;;;;;;;;;2072084;28;20125;-88
2022/08/23 03:36:20;;;;;;;17.13;10.48;;;;;;;;;;2072313;28;20050;-88
2022/08/23 03:37:20;;;;;;;16.48;10.00;;;;;;;;;;2080301;28;20026;-88
2022/08/23 03:38:21;;;;;;;15.63;9.63;;;;;;;;;;2080850;28;20026;-89
2022/08/23 03:39:21;;;;;;;17.38;9.82;;;;;;;;;;2080128;28;20096;-88
2022/08/23 03:40:22;;;;;;;19.48;10.15;;;;;;;;;;2080324;28;20110;-88
2022/08/23 03:41:24;;;;;;;15.52;9.27;;;;;;;;;;2080996;28;20029;-89
2022/08/23 03:42:24;;;;;;;16.05;9.77;;;;;;;;;;2080348;28;20033;-89
2022/08/23 03:43:24;;;;;;;15.68;8.63;;;;;;;;;;2080312;28;20092;-89
2022/08/23 03:44:25;;;;;;;15.82;9.88;;;;;;;;;;2080053;28;20108;-89
2022/08/23 03:45:26;;;;;;;14.27;9.63;;;;;;;;;;2071972;28;20034;-89
2022/08/23 03:46:27;;;;;;;17.25;9.98;;;;;;;;;;2079658;28;20551;-89
2022/08/23 03:47:27;;;;;;;18.55;10.75;;;;;;;;;;2080533;28;20025;-89
2022/08/23 03:48:28;;;;;;;14.38;9.48;;;;;;;;;;2080055;28;20519;-89
2022/08/23 03:49:28;;;;;;;17.95;10.00;;;;;;;;;;2071927;28;20041;-89
2022/08/23 03:50:29;;;;;;;16.35;9.88;;;;;;;;;;1721227;28;10347198;-88
2022/08/23 03:51:31;;;;;;;18.83;10.50;;;;;;;;;;2080252;28;20464;-89
2022/08/23 03:52:31;;;;;;;14.98;9.63;;;;;;;;;;2072237;28;20025;-88
2022/08/23 03:53:32;;;;;;;13.85;9.43;;;;;;;;;;2080174;28;20500;-88
2022/08/23 03:54:32;;;;;;;17.50;9.75;;;;;;;;;;2080938;28;20025;-89
2022/08/23 03:55:33;;;;;;;15.85;9.95;;;;;;;;;;2080157;28;20064;-91
2022/08/23 03:56:36;;;;;;;16.55;8.27;;;;;;;;;;2072219;28;20018;-89
2022/08/23 03:57:37;;;;;;;17.85;8.65;;;;;;;;;;2052852;28;20044;-89
2022/08/23 03:58:37;;;;;;;15.45;8.63;;;;;;;;;;2080416;28;20035;-90
2022/08/23 03:59:39;;;;;;;15.77;8.95;;;;;;;;;;2087932;28;20056;-89
2022/08/23 04:00:40;;;;;;;13.73;9.60;;;;;;;;;;2080213;28;20439;-89
2022/08/23 04:01:40;;;;;;;15.20;9.52;;;;;;;;;;2071967;28;20032;-89
2022/08/23 04:02:41;;;;;;;15.30;9.82;;;;;;;;;;2079234;28;20032;-89
2022/08/23 04:03:42;;;;;;;15.38;9.10;;;;;;;;;;2080329;28;20153;-89
2022/08/23 04:04:42;;;;;;;14.50;9.07;;;;;;;;;;2080700;28;20499;-89
2022/08/23 04:05:43;;;;;;;13.48;8.50;;;;;;;;;;2080814;28;20330;-89
2022/08/23 04:06:44;;;;;;;15.18;8.85;;;;;;;;;;2079941;28;20018;-89
2022/08/23 04:07:44;;;;;;;14.05;9.38;;;;;;;;;;2080165;28;20118;-89
2022/08/23 04:08:45;;;;;;;12.52;8.30;;;;;;;;;;2080741;28;20412;-88
2022/08/23 04:09:46;;;;;;;14.20;8.88;;;;;;;;;;2080821;28;20093;-88
2022/08/23 04:10:46;;;;;;;17.02;9.15;;;;;;;;;;2079932;28;20072;-89
2022/08/23 04:11:47;;;;;;;15.98;9.25;;;;;;;;;;2082819;28;20504;-89
2022/08/23 04:12:48;;;;;;;13.88;8.50;;;;;;;;;;2080733;28;20022;-90
2022/08/23 04:13:49;;;;;;;11.55;7.95;;;;;;;;;;2080065;28;20511;-88
2022/08/23 04:14:49;;;;;;;16.40;8.90;;;;;;;;;;2071620;28;20018;-88
2022/08/23 04:15:51;;;;;;;17.17;8.50;;;;;;;;;;1778746;28;10359861;-88
2022/08/23 04:16:52;;;;;;;16.25;9.82;;;;;;;;;;2080657;28;20266;-87
2022/08/23 04:17:52;;;;;;;15.38;9.00;;;;;;;;;;2080787;28;20492;-88
2022/08/23 04:18:53;;;;;;;14.82;9.18;;;;;;;;;;2080537;28;20075;-88
2022/08/23 04:19:53;;;;;;;11.35;7.80;;;;;;;;;;2080187;28;20025;-88
2022/08/23 04:20:54;;;;;;;13.32;7.75;;;;;;;;;;2071805;28;20397;-89
2022/08/23 04:21:55;;;;;;;13.05;8.07;;;;;;;;;;2079726;28;20404;-88
2022/08/23 04:22:56;;;;;;;13.38;8.02;;;;;;;;;;2079904;28;20017;-89
2022/08/23 04:23:57;;;;;;;14.77;8.35;;;;;;;;;;2071914;28;20026;-88
2022/08/23 04:24:58;;;;;;;12.85;7.85;;;;;;;;;;2079972;28;20029;-88
2022/08/23 04:25:59;;;;;;;11.75;7.70;;;;;;;;;;2088243;28;20124;-88
2022/08/23 04:26:59;;;;;;;12.23;7.18;;;;;;;;;;2088220;28;20040;-88
2022/08/23 04:28:00;;;;;;;16.10;8.77;;;;;;;;;;2080736;28;20028;-88
2022/08/23 04:29:00;;;;;;;12.75;8.00;;;;;;;;;;2079905;28;20425;-89
2022/08/23 04:30:01;;;;;;;9.75;7.10;;;;;;;;;;2072057;28;20057;-91
2022/08/23 04:31:04;;;;;;;11.35;7.38;;;;;;;;;;2071679;28;20373;-89
2022/08/23 04:32:07;;;;;;;13.80;8.13;;;;;;;;;;2079949;28;20033;-89
2022/08/23 04:33:08;;;;;;;12.57;7.25;;;;;;;;;;2080700;28;20025;-89
2022/08/23 04:34:08;;;;;;;10.75;7.13;;;;;;;;;;2080714;28;20035;-90
2022/08/23 04:35:08;;;;;;;13.60;7.65;;;;;;;;;;2080514;28;20060;-90
2022/08/23 04:36:09;;;;;;;10.52;7.03;;;;;;;;;;2080420;28;20025;-89
2022/08/23 04:37:10;;;;;;;10.43;7.30;;;;;;;;;;2079939;28;20021;-89
2022/08/23 04:38:11;;;;;;;12.52;7.03;;;;;;;;;;2071566;28;20041;-89
2022/08/23 04:39:11;;;;;;;10.95;7.13;;;;;;;;;;2079572;28;20048;-89
2022/08/23 04:42:50;;;;;;;14.48;6.88;;;;;;;;;;2080267;28;20017;-89
2022/08/23 04:43:50;;;;;;;13.48;7.75;;;;;;;;;;2079450;28;20044;-88
2022/08/23 04:44:51;;;;;;;12.05;7.88;;;;;;;;;;2079931;28;20024;-89
2022/08/23 04:45:51;;;;;;;13.77;7.13;;;;;;;;;;2080317;28;20075;-88
2022/08/23 04:46:52;;;;;;;10.90;6.90;;;;;;;;;;2080679;28;20463;-89
2022/08/23 04:47:52;;;;;;;11.05;7.10;;;;;;;;;;2080244;28;20488;-89
2022/08/23 04:49:01;;;;;;;10.87;7.33;;;;;;;;;;2008144;28;10002379;-89
2022/08/23 04:50:02;;;;;;;9.93;6.78;;;;;;;;;;2088678;28;20306;-89
2022/08/23 04:51:02;;;;;;;11.52;7.05;;;;;;;;;;2093395;28;20115;-89
2022/08/23 04:52:03;;;;;;;11.25;6.75;;;;;;;;;;2080322;28;20025;-90
2022/08/23 04:53:03;;;;;;;11.80;6.93;;;;;;;;;;2079936;28;20032;-88
2022/08/23 04:54:04;;;;;;;9.57;6.28;;;;;;;;;;2079813;28;20076;-88
2022/08/23 04:55:08;;;;;;;10.20;7.05;;;;;;;;;;2080262;28;20026;-88
2022/08/23 04:56:09;;;;;;;11.80;6.70;;;;;;;;;;2080322;28;20036;-88
2022/08/23 04:57:09;;;;;;;10.23;5.95;;;;;;;;;;2079830;28;20025;-90
2022/08/23 04:58:10;;;;;;;12.18;5.97;;;;;;;;;;2071316;28;20383;-90
2022/08/23 04:59:10;;;;;;;8.35;6.15;;;;;;;;;;2079751;28;20045;-90
2022/08/23 05:00:13;;;;;;;8.80;5.90;;;;;;;;;;2080541;28;20052;-89
2022/08/23 05:01:14;;;;;;;8.13;5.70;;;;;;;;;;2080609;28;20104;-90
2022/08/23 05:02:15;;;;;;;10.20;6.00;;;;;;;;;;2081042;28;20476;-89
2022/08/23 05:03:15;;;;;;;9.63;5.78;;;;;;;;;;2081084;28;20035;-91
2022/08/23 05:04:16;;;;;;;8.00;5.28;;;;;;;;;;2079547;28;20017;-90
2022/08/23 05:05:17;;;;;;;7.88;5.38;;;;;;;;;;2079460;28;20476;-90
2022/08/23 05:06:17;;;;;;;10.30;6.00;;;;;;;;;;2087817;28;20106;-90
2022/08/23 05:07:18;;;;;;;10.45;5.53;;;;;;;;;;2080225;28;20219;-90
2022/08/23 05:08:19;;;;;;;8.35;5.30;;;;;;;;;;2079891;28;20087;-90
2022/08/23 05:09:19;;;;;;;9.95;5.40;;;;;;;;;;2071415;28;20030;-90
2022/08/23 05:10:20;;;;;;;8.55;4.95;;;;;;;;;;2079827;28;20499;-90
2022/08/23 05:11:21;;;;;;;7.85;5.25;;;;;;;;;;2080391;28;20098;-90
2022/08/23 05:12:22;;;;;;;6.85;4.78;;;;;;;;;;2081916;28;20018;-90
2022/08/23 05:13:22;;;;;;;8.55;5.32;;;;;;;;;;2081303;28;20029;-89
2022/08/23 05:14:23;;;;;;;8.30;4.97;;;;;;;;;;2072079;28;20022;-89
2022/08/23 05:15:23;;;;;;;6.93;5.50;;;;;;;;;;2079402;28;20384;-89
2022/08/23 05:16:24;;;;;;;7.43;5.18;;;;;;;;;;2080145;28;20017;-89
2022/08/23 05:17:25;;;;;;;8.35;5.45;;;;;;;;;;2080070;28;20022;-89
2022/08/23 05:18:26;;;;;;;6.90;5.43;;;;;;;;;;2079601;28;20088;-89
2022/08/23 05:19:28;;;;;;;7.25;5.18;;;;;;;;;;2078743;28;20047;-89
2022/08/23 05:20:30;;;;;;;8.00;5.50;;;;;;;;;;2078723;28;20045;-89
2022/08/23 05:21:33;;;;;;;8.10;5.95;;;;;;;;;;2078490;28;20032;-88
2022/08/23 05:22:39;;;;;;;9.40;5.72;;;;;;;;;;2078890;28;20376;-90
2022/08/23 05:23:48;;;;;;;9.09;5.66;;;;;;;;;;2013699;28;10274416;-89
2022/08/23 05:24:50;;;;;;;9.05;5.70;;;;;;;;;;2079614;28;20610;-89
2022/08/23 05:25:52;;;;;;;7.70;5.65;;;;;;;;;;2079428;28;20112;-89
2022/08/23 05:26:53;;;;;;;8.13;5.18;;;;;;;;;;2076731;28;20124;-89
2022/08/23 05:27:56;;;;;;;8.27;5.35;;;;;;;;;;2079548;28;20025;-89
2022/08/23 05:28:56;;;;;;;8.35;5.65;;;;;;;;;;2078163;28;20022;-89
2022/08/23 05:29:57;;;;;;;8.95;5.50;;;;;;;;;;2069864;28;20515;-89
2022/08/23 05:31:07;;;;;;;8.60;5.70;;;;;;;;;;2070151;28;20025;-88
2022/08/23 05:32:07;;;;;;;7.47;5.55;;;;;;;;;;2070653;28;20100;-89
2022/08/23 05:33:07;;;;;;;8.25;5.82;;;;;;;;;;2071603;28;20057;-88
2022/08/23 05:34:08;;;;;;;9.07;5.80;;;;;;;;;;2071885;28;20029;-89
2022/08/23 05:35:08;;;;;;;7.93;5.47;;;;;;;;;;2073806;28;20456;-89
2022/08/23 05:36:11;;;;;;;7.18;5.05;;;;;;;;;;2071294;28;20026;-89
2022/08/23 05:37:12;;;;;;;11.35;5.55;;;;;;;;;;2071043;28;20487;-88
2022/08/23 05:38:12;;;;;;;8.25;5.15;;;;;;;;;;2072477;28;20033;-89
2022/08/23 05:39:14;;;;;;;9.98;5.82;;;;;;;;;;2071975;28;20109;-89
2022/08/23 05:40:15;;;;;;;9.73;5.70;;;;;;;;;;2071047;28;20021;-89
2022/08/23 05:41:46;;;;;;;8.40;5.53;;;;;;;;;;2071389;28;20088;-90
2022/08/23 05:42:46;;;;;;;7.93;4.50;;;;;;;;;;2069952;28;20045;-89
2022/08/23 05:43:47;;;;;;;9.68;5.20;;;;;;;;;;2079161;28;20076;-88
2022/08/23 05:44:47;;;;;;;8.93;4.82;;;;;;;;;;2075389;28;20022;-88
2022/08/23 05:45:59;;;;;;;9.70;5.07;;;;;;;;;;2071312;28;20044;-89
2022/08/23 05:46:59;;;;;;;7.85;4.90;;;;;;;;;;2075522;28;20022;-89
2022/08/23 05:47:59;;;;;;;8.23;4.70;;;;;;;;;;2080138;28;20503;-89
2022/08/23 05:49:00;;;;;;;7.25;4.60;;;;;;;;;;2076467;28;20034;-89
2022/08/23 05:50:00;;;;;;;8.05;4.60;;;;;;;;;;2076457;28;20048;-89
2022/08/23 05:51:21;;;;;;;6.45;4.20;;;;;;;;;;2083090;28;20013;-89
2022/08/23 05:52:25;;;;;;;6.43;4.22;;;;;;;;;;2076453;28;20018;-89
2022/08/23 05:53:25;;;;;;;5.03;4.43;;;;;;;;;;2079222;28;20025;-89
2022/08/23 05:54:26;;;;;;;5.82;4.65;;;;;;;;;;2079851;28;20456;-88
2022/08/23 05:55:26;;;;;;;7.20;4.57;;;;;;;;;;2079205;28;20029;-88
2022/08/23 05:56:30;;;;;;;4.63;3.30;;;;;;;;;;1723772;28;10218407;-88
2022/08/23 05:57:33;;;;;;;10.23;4.20;;;;;;;;;;2078906;28;20037;-89
2022/08/23 05:58:34;;;;;;;4.97;3.67;;;;;;;;;;2078968;28;20021;-89
2022/08/23 05:59:34;;;;;;;5.65;4.07;;;;;;;;;;2079112;28;20021;-89
2022/08/23 06:00:35;;;;;;;8.73;4.72;;;;;;;;;;2078592;28;20090;-89
2022/08/23 06:01:36;;;;;;;8.23;4.93;;;;;;;;;;2079513;28;20443;-88
2022/08/23 06:02:36;;;;;;;7.65;4.57;;;;;;;;;;2079365;28;20525;-89
2022/08/23 06:03:37;;;;;;;5.50;4.30;;;;;;;;;;2079273;28;20021;-88
2022/08/23 06:04:37;;;;;;;9.18;5.40;;;;;;;;;;2079925;28;20519;-88
2022/08/23 06:05:40;;;;;;;6.07;4.85;;;;;;;;;;2079772;28;20053;-89
2022/08/23 06:06:42;;;;;;;7.90;5.03;;;;;;;;;;2079802;28;20025;-88
2022/08/23 06:07:43;;;;;;;8.38;4.93;;;;;;;;;;2079003;28;20031;-88
2022/08/23 06:08:45;;;;;;;8.18;4.57;;;;;;;;;;2079233;28;20115;-88
2022/08/23 06:09:46;;;;;;;5.70;4.53;;;;;;;;;;2079978;28;20021;-88
2022/08/23 06:10:46;;;;;;;6.47;4.45;;;;;;;;;;2080860;28;20874;-88
2022/08/23 06:11:47;;;;;;;7.22;4.45;;;;;;;;;;2080761;28;20018;-88
2022/08/23 06:12:48;;;;;;;6.20;3.83;;;;;;;;;;1730636;28;10280285;-88
2022/08/23 06:13:56;;;;;;;5.88;4.15;;;;;;;;;;2079850;28;20331;-89
2022/08/23 06:14:57;;;;;;;5.38;4.10;;;;;;;;;;2080384;28;20025;-88